Time;durP1;ratioP1;P1;durP2;ratioP2;P2;SDS_P1;SDS_P2;PMS_P1;PMS_P2;Temp;Humidity;BMP_temperature;BMP_pressure;BME280_temperature;BME280_humidity;BME280_pressure;Samples;Min_cycle;Max_cycle;Signal;HPM_P1;HPM_P2
2023/01/21 00:01:09;;;;;;;;;;;-1.00;99.90;;;;;;5063191;28;19927;-75
2023/01/21 00:03:34;;;;;;;;;;;-1.10;99.90;;;;;;5025869;28;20019;-75
2023/01/21 00:06:00;;;;;;;;;;;-1.10;99.90;;;;;;5050988;28;19920;-74
2023/01/21 00:08:25;;;;;;;;;;;-1.20;99.90;;;;;;5051503;28;20265;-75
2023/01/21 00:10:51;;;;;;;;;;;-1.20;99.90;;;;;;5028997;28;19940;-75
2023/01/21 00:13:17;;;;;;;;;;;-1.10;99.90;;;;;;5053088;28;20469;-75
2023/01/21 00:15:42;;;;;;;;;;;-1.20;99.90;;;;;;5055165;28;19947;-73
2023/01/21 00:18:08;;;;;;;;;;;-1.20;99.90;;;;;;5027407;28;20036;-74
2023/01/21 00:20:33;;;;;;;;;;;-1.20;99.90;;;;;;5055832;28;19925;-75
2023/01/21 00:22:59;;;;;;;;;;;0.60;99.90;;;;;;5058563;28;20363;-74
2023/01/21 00:25:24;;;;;;;;;;;-1.30;99.90;;;;;;5044611;28;19920;-74
2023/01/21 00:27:50;;;;;;;;;;;-1.20;99.90;;;;;;5060231;28;19931;-75
2023/01/21 00:30:16;;;;;;;;;;;-1.20;99.90;;;;;;5037805;28;19921;-75
2023/01/21 00:32:41;;;;;;;;;;;-1.20;99.90;;;;;;5037166;28;19920;-75
2023/01/21 00:35:07;;;;;;;;;;;-1.30;99.90;;;;;;5061422;28;20346;-74
2023/01/21 00:37:33;;;;;;;;;;;-1.30;99.90;;;;;;5057256;28;19920;-74
2023/01/21 00:39:58;;;;;;;;;;;-1.30;99.90;;;;;;5059373;28;20386;-74
2023/01/21 00:42:24;;;;;;;;;;;-1.30;99.90;;;;;;5063143;28;19921;-74
2023/01/21 00:44:49;;;;;;;;;;;-0.80;99.90;;;;;;5059149;28;19947;-74
2023/01/21 00:47:15;;;;;;;;;;;-1.30;99.90;;;;;;5061805;28;19928;-75
2023/01/21 00:49:40;;;;;;;;;;;-1.30;99.90;;;;;;5043169;28;20768;-75
2023/01/21 00:52:06;;;;;;;;;;;-1.40;99.90;;;;;;5037813;28;19920;-75
2023/01/21 00:54:33;;;;;;;;;;;-1.30;99.90;;;;;;5036508;28;19966;-74
2023/01/21 00:56:58;;;;;;;;;;;-0.80;99.90;;;;;;5038007;28;19924;-74
2023/01/21 00:59:26;;;;;;;;;;;-1.60;99.90;;;;;;5059662;28;20257;-74
2023/01/21 01:01:51;;;;;;;;;;;-1.40;99.90;;;;;;5044963;28;20283;-75
2023/01/21 01:04:17;;;;;;;;;;;-1.50;99.90;;;;;;5034225;28;20015;-75
2023/01/21 01:06:42;;;;;;;;;;;-1.40;99.90;;;;;;5062539;28;19975;-75
2023/01/21 01:09:08;;;;;;;;;;;-1.40;99.90;;;;;;5042539;28;20383;-75
2023/01/21 01:11:34;;;;;;;;;;;-1.40;99.90;;;;;;5060779;28;19925;-75
2023/01/21 01:13:59;;;;;;;;;;;-1.60;99.90;;;;;;5061060;28;19974;-75
2023/01/21 01:16:25;;;;;;;;;;;-1.50;99.90;;;;;;5043347;28;19920;-75
2023/01/21 01:18:51;;;;;;;;;;;-1.50;99.90;;;;;;5037574;28;19924;-75
2023/01/21 01:21:17;;;;;;;;;;;-1.50;99.90;;;;;;5058964;28;19920;-75
2023/01/21 01:23:43;;;;;;;;;;;-1.50;99.90;;;;;;5032038;28;20037;-75
2023/01/21 01:26:10;;;;;;;;;;;-1.40;99.90;;;;;;5046510;28;20389;-75
2023/01/21 01:28:35;;;;;;;;;;;-1.50;99.90;;;;;;5039855;28;20295;-74
2023/01/21 01:31:03;;;;;;;;;;;-1.50;99.90;;;;;;5065062;28;19920;-74
2023/01/21 01:33:29;;;;;;;;;;;-1.50;99.90;;;;;;5039241;28;20061;-74
2023/01/21 01:35:59;;;;;;;;;;;-1.40;99.90;;;;;;5063126;28;19999;-74
2023/01/21 01:38:24;;;;;;;;;;;-1.50;99.90;;;;;;5065132;28;19928;-75
2023/01/21 01:40:51;;;;;;;;;;;-1.40;99.90;;;;;;5041242;28;19920;-74
2023/01/21 01:43:18;;;;;;;;;;;-1.40;99.90;;;;;;5056368;28;19920;-75
2023/01/21 01:45:43;;;;;;;;;;;-1.40;99.90;;;;;;5064835;28;19999;-75
2023/01/21 01:48:11;;;;;;;;;;;-1.10;99.90;;;;;;5063365;28;20003;-75
2023/01/21 01:50:38;;;;;;;;;;;-1.30;99.90;;;;;;5064621;28;19920;-75
2023/01/21 01:53:04;;;;;;;;;;;-1.30;99.90;;;;;;5045407;28;19921;-75
2023/01/21 01:55:32;;;;;;;;;;;-1.20;99.90;;;;;;5064037;28;19921;-75
2023/01/21 01:57:59;;;;;;;;;;;-1.30;99.90;;;;;;5063830;28;19947;-75
2023/01/21 02:00:25;;;;;;;;;;;-1.20;99.90;;;;;;5042202;28;19928;-75
2023/01/21 02:05:36;;;;;;;;;;;-1.30;99.90;;;;;;5039652;28;19920;-75
2023/01/21 02:08:02;;;;;;;;;;;-1.30;99.90;;;;;;5039494;28;19935;-75
2023/01/21 02:10:30;;;;;;;;;;;-1.30;99.90;;;;;;5045394;28;20038;-76
2023/01/21 02:12:56;;;;;;;;;;;-1.20;99.90;;;;;;5063469;28;19925;-75
2023/01/21 02:15:27;;;;;;;;;;;-1.50;99.90;;;;;;5061443;28;19928;-75
2023/01/21 02:18:03;;;;;;;;;;;-1.70;99.90;;;;;;5032700;28;19921;-74
2023/01/21 02:20:48;;;;;;;;;;;-1.40;99.90;;;;;;5044832;28;20015;-75
2023/01/21 02:23:22;;;;;;;;;;;-1.40;99.90;;;;;;5059351;28;20011;-76
2023/01/21 02:26:01;;;;;;;;;;;-1.40;99.90;;;;;;5045752;28;20018;-75
2023/01/21 02:28:35;;;;;;;;;;;-1.40;99.90;;;;;;5044474;28;19921;-76
2023/01/21 02:31:06;;;;;;;;;;;-1.50;99.90;;;;;;5062610;28;19927;-76
2023/01/21 02:33:35;;;;;;;;;;;-1.40;99.90;;;;;;5064305;28;19924;-74
2023/01/21 02:36:23;;;;;;;;;;;-1.40;99.90;;;;;;5042943;28;19925;-74
2023/01/21 02:38:58;;;;;;;;;;;-1.40;99.90;;;;;;5018967;28;20015;-74
2023/01/21 02:41:32;;;;;;;;;;;-1.40;99.90;;;;;;5064162;28;19924;-74
2023/01/21 02:44:07;;;;;;;;;;;-1.50;99.90;;;;;;5044001;28;19924;-74
2023/01/21 02:46:38;;;;;;;;;;;-1.50;99.90;;;;;;5054559;28;19921;-74
2023/01/21 02:49:23;;;;;;;;;;;-1.50;99.90;;;;;;5027999;28;19920;-74
2023/01/21 02:51:48;;;;;;;;;;;-1.50;99.90;;;;;;5060375;28;19931;-74
2023/01/21 02:54:34;;;;;;;;;;;-1.50;99.90;;;;;;5062363;28;19920;-75
2023/01/21 02:56:59;;;;;;;;;;;-1.50;99.90;;;;;;5046887;28;19959;-74
2023/01/21 02:59:25;;;;;;;;;;;-1.60;99.90;;;;;;5043327;28;20018;-74
2023/01/21 03:02:11;;;;;;;;;;;-1.50;99.90;;;;;;5025189;28;19979;-74
2023/01/21 03:04:44;;;;;;;;;;;-1.40;99.90;;;;;;5058892;28;19927;-74
2023/01/21 03:07:28;;;;;;;;;;;-1.30;99.90;;;;;;5045455;28;19973;-74
2023/01/21 03:09:58;;;;;;;;;;;-1.20;99.90;;;;;;5054314;28;19936;-74
2023/01/21 03:12:33;;;;;;;;;;;-1.20;99.90;;;;;;5026729;28;20322;-74
2023/01/21 03:18:05;;;;;;;;;;;-1.10;99.90;;;;;;5029038;28;19968;-74
2023/01/21 03:20:33;;;;;;;;;;;-1.10;99.90;;;;;;5039795;28;19928;-74
2023/01/21 03:23:09;;;;;;;;;;;-1.10;99.90;;;;;;5060213;28;19931;-74
2023/01/21 03:25:35;;;;;;;;;;;-1.00;99.90;;;;;;5045872;28;19967;-74
2023/01/21 03:28:03;;;;;;;;;;;-1.00;99.90;;;;;;5061312;28;20015;-74
2023/01/21 03:30:30;;;;;;;;;;;-1.10;99.90;;;;;;5040234;28;19921;-75
2023/01/21 03:32:56;;;;;;;;;;;-1.10;99.90;;;;;;5046018;28;20291;-74
2023/01/21 03:35:28;;;;;;;;;;;-0.80;99.90;;;;;;5038730;28;19955;-74
2023/01/21 03:37:56;;;;;;;;;;;-0.80;99.90;;;;;;5034236;28;19924;-74
2023/01/21 03:40:27;;;;;;;;;;;-0.90;99.90;;;;;;5026083;28;19920;-74
2023/01/21 03:42:55;;;;;;;;;;;-0.80;99.90;;;;;;5057160;28;20367;-74
2023/01/21 03:45:40;;;;;;;;;;;-0.90;99.90;;;;;;5060175;28;19921;-73
2023/01/21 03:48:14;;;;;;;;;;;-0.90;99.90;;;;;;5031449;28;19928;-74
2023/01/21 03:50:42;;;;;;;;;;;-0.90;99.90;;;;;;5056942;28;19928;-74
2023/01/21 03:53:08;;;;;;;;;;;-0.90;99.90;;;;;;5061831;28;19975;-74
2023/01/21 03:55:35;;;;;;;;;;;-0.90;99.90;;;;;;5038208;28;20047;-74
2023/01/21 03:58:01;;;;;;;;;;;0.80;99.90;;;;;;5060201;28;19920;-74
2023/01/21 04:00:26;;;;;;;;;;;-0.90;99.90;;;;;;5040940;28;20296;-74
2023/01/21 04:02:52;;;;;;;;;;;-1.00;99.90;;;;;;5059690;28;20314;-74
2023/01/21 04:05:17;;;;;;;;;;;-0.80;99.90;;;;;;5058062;28;20351;-73
2023/01/21 04:07:43;;;;;;;;;;;-1.00;99.90;;;;;;5025484;28;20384;-74
2023/01/21 04:10:08;;;;;;;;;;;-0.80;99.90;;;;;;5028047;28;19931;-73
2023/01/21 04:12:34;;;;;;;;;;;-0.80;99.90;;;;;;5060869;28;20303;-74
2023/01/21 04:14:59;;;;;;;;;;;-0.90;99.90;;;;;;5061460;28;20033;-73
2023/01/21 04:17:27;;;;;;;;;;;-0.90;99.90;;;;;;5038871;28;19920;-73
2023/01/21 04:19:52;;;;;;;;;;;-0.90;99.90;;;;;;5062915;28;20391;-74
2023/01/21 04:22:19;;;;;;;;;;;-0.80;99.90;;;;;;5039085;28;20025;-74
2023/01/21 04:24:45;;;;;;;;;;;-1.00;99.90;;;;;;5026228;28;19971;-74
2023/01/21 04:27:10;;;;;;;;;;;-0.80;99.90;;;;;;5062146;28;19920;-74
2023/01/21 04:29:39;;;;;;;;;;;-0.80;99.90;;;;;;5034825;28;19920;-73
2023/01/21 04:32:04;;;;;;;;;;;-0.90;99.90;;;;;;5060344;28;20701;-74
2023/01/21 04:34:30;;;;;;;;;;;-0.90;99.90;;;;;;5037652;28;19927;-74
2023/01/21 04:36:55;;;;;;;;;;;1.20;99.90;;;;;;5060825;28;19927;-74
2023/01/21 04:39:21;;;;;;;;;;;-0.90;99.90;;;;;;5043962;28;19926;-73
2023/01/21 04:41:46;;;;;;;;;;;-1.30;99.90;;;;;;5059580;28;19978;-74
2023/01/21 04:44:12;;;;;;;;;;;-1.20;99.90;;;;;;5063323;28;20444;-74
2023/01/21 04:46:37;;;;;;;;;;;-1.00;99.90;;;;;;5059510;28;19928;-74
2023/01/21 04:49:03;;;;;;;;;;;-1.00;99.90;;;;;;5059601;28;19928;-74
2023/01/21 04:51:28;;;;;;;;;;;-0.70;99.90;;;;;;5037661;28;20066;-74
2023/01/21 04:53:54;;;;;;;;;;;-1.20;99.90;;;;;;5036774;28;20299;-74
2023/01/21 04:56:19;;;;;;;;;;;-1.10;99.90;;;;;;5060568;28;20279;-74
2023/01/21 04:58:45;;;;;;;;;;;-1.10;99.90;;;;;;5057771;28;20014;-74
2023/01/21 05:01:10;;;;;;;;;;;-1.30;99.90;;;;;;5036909;28;20400;-75
2023/01/21 05:03:36;;;;;;;;;;;-1.20;99.90;;;;;;5066543;28;19920;-75
2023/01/21 05:06:04;;;;;;;;;;;-1.10;99.90;;;;;;5041154;28;19928;-74
2023/01/21 05:08:30;;;;;;;;;;;-1.20;99.90;;;;;;5035300;28;19928;-74
2023/01/21 05:10:55;;;;;;;;;;;1.30;99.90;;;;;;5031788;28;19920;-74
2023/01/21 05:13:21;;;;;;;;;;;-1.20;99.90;;;;;;5037094;28;19924;-74
2023/01/21 05:15:46;;;;;;;;;;;-1.10;99.90;;;;;;5027573;28;19921;-74
2023/01/21 05:18:12;;;;;;;;;;;1.00;99.90;;;;;;5060309;28;19927;-73
2023/01/21 05:20:37;;;;;;;;;;;-1.40;99.90;;;;;;5025669;28;19958;-73
2023/01/21 05:23:03;;;;;;;;;;;-1.10;99.90;;;;;;5028735;28;19920;-73
2023/01/21 05:25:29;;;;;;;;;;;-1.30;99.90;;;;;;5063901;28;19982;-74
2023/01/21 05:27:54;;;;;;;;;;;0.90;99.90;;;;;;5064615;28;19921;-73
2023/01/21 05:30:20;;;;;;;;;;;-1.00;99.90;;;;;;5060565;28;19971;-74
2023/01/21 05:32:52;;;;;;;;;;;-1.20;99.90;;;;;;5063861;28;19921;-74
2023/01/21 05:35:19;;;;;;;;;;;-0.90;99.90;;;;;;5064050;28;19932;-74
2023/01/21 05:37:46;;;;;;;;;;;-0.10;99.90;;;;;;5062828;28;20008;-74
2023/01/21 05:40:12;;;;;;;;;;;-0.90;99.90;;;;;;5047449;28;19920;-74
2023/01/21 05:42:38;;;;;;;;;;;-0.70;99.90;;;;;;5039591;28;19931;-74
2023/01/21 05:45:04;;;;;;;;;;;1.40;99.90;;;;;;5030385;28;19921;-74
2023/01/21 05:47:29;;;;;;;;;;;-0.50;99.90;;;;;;5066178;28;19920;-74
2023/01/21 05:49:55;;;;;;;;;;;-0.50;99.90;;;;;;5061044;28;19983;-74
2023/01/21 05:52:20;;;;;;;;;;;-0.40;99.90;;;;;;5045940;28;19920;-74
2023/01/21 05:54:46;;;;;;;;;;;1.60;99.90;;;;;;5062189;28;19925;-74
2023/01/21 05:57:11;;;;;;;;;;;-0.30;99.90;;;;;;5040444;28;19969;-74
2023/01/21 05:59:49;;;;;;;;;;;-0.30;99.90;;;;;;5040347;28;19920;-74
2023/01/21 06:02:14;;;;;;;;;;;-0.40;99.90;;;;;;5064073;28;19967;-74
2023/01/21 06:04:40;;;;;;;;;;;-0.30;99.90;;;;;;5038474;28;19963;-74
2023/01/21 06:07:05;;;;;;;;;;;-0.20;99.90;;;;;;5063605;28;19999;-74
2023/01/21 06:09:31;;;;;;;;;;;-0.10;99.90;;;;;;5065766;28;20074;-74
2023/01/21 06:11:56;;;;;;;;;;;-0.20;99.90;;;;;;5040449;28;19921;-74
2023/01/21 06:14:22;;;;;;;;;;;-0.10;99.90;;;;;;5064437;28;19927;-74
2023/01/21 06:16:47;;;;;;;;;;;0.00;99.90;;;;;;5045539;28;19935;-74
2023/01/21 06:19:13;;;;;;;;;;;0.00;99.90;;;;;;5063077;28;19920;-74
2023/01/21 06:21:38;;;;;;;;;;;-0.10;99.90;;;;;;5064477;28;19978;-74
2023/01/21 06:24:04;;;;;;;;;;;-0.20;99.90;;;;;;5061993;28;20644;-74
2023/01/21 06:26:30;;;;;;;;;;;-0.10;99.90;;;;;;5065218;28;19920;-74
2023/01/21 06:28:56;;;;;;;;;;;-0.30;99.90;;;;;;5062694;28;20355;-74
2023/01/21 06:31:21;;;;;;;;;;;-0.30;99.90;;;;;;5061422;28;19927;-74
2023/01/21 06:33:47;;;;;;;;;;;-0.50;99.90;;;;;;5039953;28;19920;-73
2023/01/21 06:36:12;;;;;;;;;;;-0.30;99.90;;;;;;5059837;28;19917;-74
2023/01/21 06:38:40;;;;;;;;;;;-0.20;99.90;;;;;;5062473;28;20371;-74
2023/01/21 06:41:06;;;;;;;;;;;1.90;99.90;;;;;;5040072;28;19952;-74
2023/01/21 06:43:31;;;;;;;;;;;-0.30;99.90;;;;;;5039679;28;20015;-74
2023/01/21 06:45:57;;;;;;;;;;;-0.30;99.90;;;;;;5030243;28;19921;-74
2023/01/21 06:48:22;;;;;;;;;;;1.20;99.90;;;;;;5065304;28;19927;-74
2023/01/21 06:50:48;;;;;;;;;;;-0.50;99.90;;;;;;5061838;28;19925;-74
2023/01/21 06:53:14;;;;;;;;;;;-0.40;99.90;;;;;;5063324;28;19925;-74
2023/01/21 06:55:42;;;;;;;;;;;2.30;99.90;;;;;;5037352;28;19970;-74
2023/01/21 06:58:08;;;;;;;;;;;-0.70;99.90;;;;;;5063395;28;19924;-73
2023/01/21 07:00:35;;;;;;;;;;;-0.60;99.90;;;;;;5062647;28;19931;-74
2023/01/21 07:03:01;;;;;;;;;;;-0.70;99.90;;;;;;5039213;28;19971;-74
2023/01/21 07:05:26;;;;;;;;;;;-0.70;99.90;;;;;;5031556;28;20366;-75
2023/01/21 07:07:52;;;;;;;;;;;-0.80;99.90;;;;;;5035393;28;19917;-73
2023/01/21 07:10:18;;;;;;;;;;;-0.80;99.90;;;;;;5033950;28;19925;-74
2023/01/21 07:12:43;;;;;;;;;;;-0.90;99.90;;;;;;5041785;28;19920;-73
2023/01/21 07:15:09;;;;;;;;;;;-1.00;99.90;;;;;;5043658;28;19916;-73
2023/01/21 07:17:34;;;;;;;;;;;-1.20;99.90;;;;;;5036302;28;19921;-73
2023/01/21 07:20:00;;;;;;;;;;;0.90;99.90;;;;;;5060497;28;19927;-73
2023/01/21 07:22:26;;;;;;;;;;;-1.00;99.90;;;;;;5062216;28;19916;-74
2023/01/21 07:24:51;;;;;;;;;;;1.20;99.90;;;;;;5032069;28;19921;-74
2023/01/21 07:27:16;;;;;;;;;;;-1.00;99.90;;;;;;5037528;28;20024;-74
2023/01/21 07:29:42;;;;;;;;;;;-1.00;99.90;;;;;;5061099;28;19927;-73
2023/01/21 07:32:08;;;;;;;;;;;-0.80;99.90;;;;;;5036666;28;20031;-74
2023/01/21 07:34:33;;;;;;;;;;;-0.50;99.90;;;;;;5061903;28;19921;-74
2023/01/21 07:36:59;;;;;;;;;;;1.40;99.90;;;;;;5044373;28;19928;-74
2023/01/21 07:39:24;;;;;;;;;;;-0.70;99.90;;;;;;5061471;28;19924;-73
2023/01/21 07:41:50;;;;;;;;;;;-0.60;99.90;;;;;;5055503;28;19921;-73
2023/01/21 07:44:16;;;;;;;;;;;2.20;99.90;;;;;;5063554;28;20372;-74
2023/01/21 07:46:41;;;;;;;;;;;-0.50;99.90;;;;;;5061115;28;20336;-74
2023/01/21 07:49:07;;;;;;;;;;;-0.40;99.90;;;;;;5029607;28;19917;-75
2023/01/21 07:51:32;;;;;;;;;;;-0.60;99.90;;;;;;5038040;28;20253;-75
2023/01/21 07:53:58;;;;;;;;;;;-0.40;99.90;;;;;;5061714;28;19928;-73
2023/01/21 07:56:25;;;;;;;;;;;2.80;99.90;;;;;;5060641;28;19927;-74
2023/01/21 07:58:51;;;;;;;;;;;-0.30;99.90;;;;;;5044848;28;19927;-74
2023/01/21 08:01:16;;;;;;;;;;;-0.30;99.90;;;;;;5038166;28;19920;-73
2023/01/21 08:03:42;;;;;;;;;;;-0.50;99.90;;;;;;5031376;28;19934;-73
2023/01/21 08:06:07;;;;;;;;;;;-0.20;99.90;;;;;;5027323;28;19971;-73
2023/01/21 08:08:33;;;;;;;;;;;-0.50;99.90;;;;;;5028081;28;19925;-74
2023/01/21 08:10:58;;;;;;;;;;;-0.20;99.90;;;;;;5034427;28;19924;-73
2023/01/21 08:13:24;;;;;;;;;;;-0.20;99.90;;;;;;5060008;28;19920;-73
2023/01/21 08:15:53;;;;;;;;;;;1.60;99.90;;;;;;5061597;28;19921;-74
2023/01/21 08:18:20;;;;;;;;;;;-0.10;99.90;;;;;;5061136;28;19921;-75
2023/01/21 08:20:46;;;;;;;;;;;0.00;99.90;;;;;;5060018;28;20306;-73
2023/01/21 08:23:12;;;;;;;;;;;0.00;99.90;;;;;;5060249;28;20003;-74
2023/01/21 08:25:37;;;;;;;;;;;0.10;99.90;;;;;;5062866;28;20326;-74
2023/01/21 08:28:03;;;;;;;;;;;0.10;99.90;;;;;;5057475;28;19971;-74
2023/01/21 08:30:29;;;;;;;;;;;0.10;99.90;;;;;;5062633;28;19935;-74
2023/01/21 08:32:55;;;;;;;;;;;0.20;99.90;;;;;;5042544;28;19920;-73
2023/01/21 08:35:20;;;;;;;;;;;3.30;99.90;;;;;;5061892;28;19921;-73
2023/01/21 08:37:49;;;;;;;;;;;0.10;99.90;;;;;;5047335;28;20288;-74
2023/01/21 08:40:14;;;;;;;;;;;0.10;99.90;;;;;;5064900;28;19920;-76
2023/01/21 08:42:40;;;;;;;;;;;0.20;99.90;;;;;;5039963;28;19943;-73
2023/01/21 08:45:06;;;;;;;;;;;0.30;99.90;;;;;;5062785;28;20284;-75
2023/01/21 08:47:31;;;;;;;;;;;0.90;99.90;;;;;;5049467;28;19931;-78
2023/01/21 08:49:57;;;;;;;;;;;3.30;99.90;;;;;;5064114;28;19921;-76
2023/01/21 08:52:22;;;;;;;;;;;5.40;99.90;;;;;;5033863;28;19920;-80
2023/01/21 08:54:48;;;;;;;;;;;4.20;99.90;;;;;;5065382;28;19925;-79
2023/01/21 08:57:13;;;;;;;;;;;7.90;99.90;;;;;;5065645;28;20037;-78
2023/01/21 08:59:39;;;;;;;;;;;6.20;99.90;;;;;;5040844;28;19966;-79
2023/01/21 09:02:04;;;;;;;;;;;6.60;99.90;;;;;;5035471;28;19964;-73
2023/01/21 09:04:30;;;;;;;;;;;7.30;99.90;;;;;;5063146;28;19920;-75
2023/01/21 09:06:55;;;;;;;;;;;7.80;99.90;;;;;;5032689;28;20000;-79
2023/01/21 09:09:21;;;;;;;;;;;8.70;99.90;;;;;;5067104;28;19935;-77
2023/01/21 09:11:46;;;;;;;;;;;8.20;99.90;;;;;;5041108;28;19938;-80
2023/01/21 09:14:12;;;;;;;;;;;8.90;99.90;;;;;;5046055;28;20007;-76
2023/01/21 09:16:37;;;;;;;;;;;10.00;99.90;;;;;;5047567;28;20346;-76
2023/01/21 09:19:03;;;;;;;;;;;10.30;99.90;;;;;;5041328;28;19920;-75
2023/01/21 09:21:29;;;;;;;;;;;10.70;99.90;;;;;;5062358;28;19921;-76
2023/01/21 09:23:55;;;;;;;;;;;11.80;99.90;;;;;;5066371;28;19966;-76
2023/01/21 09:26:21;;;;;;;;;;;12.00;99.90;;;;;;5063765;28;19920;-76
2023/01/21 09:28:54;;;;;;;;;;;12.30;99.90;;;;;;5035503;28;19924;-76
2023/01/21 09:31:20;;;;;;;;;;;12.20;98.30;;;;;;5065720;28;19921;-77
2023/01/21 09:33:47;;;;;;;;;;;11.40;98.00;;;;;;5063741;28;19921;-76
2023/01/21 09:36:15;;;;;;;;;;;10.70;99.90;;;;;;5063257;28;20398;-75
2023/01/21 09:38:41;;;;;;;;;;;12.20;99.90;;;;;;5057646;28;19936;-74
2023/01/21 09:41:22;;;;;;;;;;;8.80;99.90;;;;;;5039682;28;19928;-73
2023/01/21 09:44:04;;;;;;;;;;;7.80;99.90;;;;;;5037149;28;20167;-78
2023/01/21 09:46:36;;;;;;;;;;;7.60;99.90;;;;;;5030584;28;19925;-77
2023/01/21 09:49:04;;;;;;;;;;;9.30;99.90;;;;;;5032786;28;19920;-79
2023/01/21 09:51:47;;;;;;;;;;;11.10;99.90;;;;;;5041482;28;20371;-76
2023/01/21 09:54:18;;;;;;;;;;;11.40;99.90;;;;;;5064263;28;20296;-76
2023/01/21 09:56:50;;;;;;;;;;;10.90;99.90;;;;;;5060892;28;19973;-75
2023/01/21 09:59:32;;;;;;;;;;;10.00;99.90;;;;;;5061625;28;19921;-76
2023/01/21 10:01:59;;;;;;;;;;;9.10;99.90;;;;;;5058842;28;20364;-75
2023/01/21 10:04:30;;;;;;;;;;;8.20;99.90;;;;;;5064534;28;20007;-75
2023/01/21 10:07:02;;;;;;;;;;;7.70;99.90;;;;;;5061274;28;20403;-73
2023/01/21 10:09:31;;;;;;;;;;;7.10;99.90;;;;;;5056086;28;19928;-74
2023/01/21 10:12:03;;;;;;;;;;;6.40;99.90;;;;;;5062235;28;19921;-74
2023/01/21 10:14:56;;;;;;;;;;;6.00;99.90;;;;;;5042730;28;19932;-73
2023/01/21 10:17:22;;;;;;;;;;;5.60;99.90;;;;;;5044167;28;19924;-73
2023/01/21 10:19:53;;;;;;;;;;;5.30;99.90;;;;;;5031720;28;19948;-74
2023/01/21 10:22:20;;;;;;;;;;;5.20;99.90;;;;;;5057800;28;19978;-73
2023/01/21 10:24:55;;;;;;;;;;;7.20;99.90;;;;;;5046495;28;19970;-75
2023/01/21 10:27:21;;;;;;;;;;;5.10;99.90;;;;;;5029225;28;19944;-76
2023/01/21 10:29:49;;;;;;;;;;;5.10;99.90;;;;;;5035057;28;19920;-76
2023/01/21 10:32:17;;;;;;;;;;;6.50;99.90;;;;;;5035636;28;20417;-75
2023/01/21 10:34:48;;;;;;;;;;;5.10;99.90;;;;;;5038058;28;20311;-74
2023/01/21 10:37:25;;;;;;;;;;;6.30;99.90;;;;;;5039415;28;19927;-75
2023/01/21 10:39:54;;;;;;;;;;;4.90;99.90;;;;;;5058929;28;19927;-75
2023/01/21 10:42:19;;;;;;;;;;;5.00;99.90;;;;;;5063900;28;20619;-74
2023/01/21 10:45:07;;;;;;;;;;;5.00;99.90;;;;;;5055674;28;19928;-75
2023/01/21 10:47:35;;;;;;;;;;;5.30;99.90;;;;;;5028006;28;19972;-76
2023/01/21 10:50:19;;;;;;;;;;;5.60;99.90;;;;;;5036361;28;20303;-77
2023/01/21 10:52:49;;;;;;;;;;;7.00;99.90;;;;;;5037993;28;20287;-77
2023/01/21 10:55:33;;;;;;;;;;;9.00;99.90;;;;;;5029816;28;19931;-77
2023/01/21 10:58:01;;;;;;;;;;;10.40;99.90;;;;;;5051536;28;20038;-77
2023/01/21 11:00:28;;;;;;;;;;;11.40;99.90;;;;;;5055444;28;20364;-76
2023/01/21 11:02:59;;;;;;;;;;;12.00;99.90;;;;;;5054087;28;20430;-77
2023/01/21 11:05:25;;;;;;;;;;;11.90;99.90;;;;;;5052187;28;19921;-77
2023/01/21 11:07:51;;;;;;;;;;;13.00;99.00;;;;;;5061334;28;19920;-79
2023/01/21 11:10:19;;;;;;;;;;;13.30;97.10;;;;;;5061863;28;19974;-79
2023/01/21 11:12:45;;;;;;;;;;;13.70;97.20;;;;;;5063389;28;19939;-78
2023/01/21 11:15:11;;;;;;;;;;;14.10;95.90;;;;;;5029610;28;19917;-77
2023/01/21 11:17:39;;;;;;;;;;;14.40;96.10;;;;;;5063735;28;19928;-78
2023/01/21 11:20:14;;;;;;;;;;;14.60;94.30;;;;;;5039091;28;19921;-77
2023/01/21 11:22:41;;;;;;;;;;;14.90;93.30;;;;;;5035003;28;19966;-78
2023/01/21 11:25:17;;;;;;;;;;;15.00;93.20;;;;;;5027917;28;20069;-78
2023/01/21 11:27:45;;;;;;;;;;;15.00;92.80;;;;;;5059688;28;20003;-77
2023/01/21 11:30:33;;;;;;;;;;;15.20;92.70;;;;;;5054469;28;20031;-80
2023/01/21 11:33:17;;;;;;;;;;;15.60;92.30;;;;;;5057740;28;19928;-78
2023/01/21 11:35:42;;;;;;;;;;;15.70;91.80;;;;;;5057264;28;20376;-81
2023/01/21 11:38:19;;;;;;;;;;;15.90;91.50;;;;;;5045593;28;19931;-78
2023/01/21 11:40:48;;;;;;;;;;;15.80;91.40;;;;;;5059523;28;19921;-82
2023/01/21 11:43:30;;;;;;;;;;;16.20;90.80;;;;;;5044517;28;19972;-80
2023/01/21 11:45:56;;;;;;;;;;;16.20;91.30;;;;;;5062379;28;19928;-78
2023/01/21 11:48:21;;;;;;;;;;;16.50;88.40;;;;;;5043330;28;20330;-79
2023/01/21 11:50:47;;;;;;;;;;;16.40;89.80;;;;;;5062106;28;20296;-76
2023/01/21 11:53:16;;;;;;;;;;;16.60;89.40;;;;;;5062896;28;19962;-80
2023/01/21 11:55:49;;;;;;;;;;;17.00;88.80;;;;;;5024980;28;19920;-77
2023/01/21 11:58:32;;;;;;;;;;;16.90;88.20;;;;;;5061816;28;19921;-77
2023/01/21 12:00:59;;;;;;;;;;;16.80;88.80;;;;;;5060662;28;20007;-78
2023/01/21 12:03:29;;;;;;;;;;;16.90;88.80;;;;;;5062497;28;19921;-77
2023/01/21 12:05:55;;;;;;;;;;;16.80;87.20;;;;;;5055011;28;19920;-77
2023/01/21 12:08:22;;;;;;;;;;;16.70;88.60;;;;;;5038305;28;20023;-76
2023/01/21 12:10:49;;;;;;;;;;;16.70;86.80;;;;;;5056683;28;19920;-74
2023/01/21 12:13:25;;;;;;;;;;;16.90;87.30;;;;;;5026881;28;20011;-75
2023/01/21 12:16:02;;;;;;;;;;;17.00;86.60;;;;;;5056384;28;19931;-80
2023/01/21 12:18:46;;;;;;;;;;;17.10;86.20;;;;;;5055719;28;19928;-80
2023/01/21 12:21:30;;;;;;;;;;;17.10;84.70;;;;;;5032510;28;19952;-78
2023/01/21 12:24:15;;;;;;;;;;;17.10;85.20;;;;;;5055484;28;19928;-77
2023/01/21 12:26:44;;;;;;;;;;;17.20;85.40;;;;;;5046418;28;19920;-80
2023/01/21 12:29:28;;;;;;;;;;;17.30;85.00;;;;;;5057415;28;19924;-76
2023/01/21 12:32:00;;;;;;;;;;;17.40;83.80;;;;;;5055400;28;20375;-81
2023/01/21 12:34:41;;;;;;;;;;;17.50;83.90;;;;;;5055768;28;19924;-76
2023/01/21 12:37:15;;;;;;;;;;;17.50;82.90;;;;;;5058041;28;19975;-83
2023/01/21 12:39:42;;;;;;;;;;;17.10;83.20;;;;;;5034162;28;20007;-76
2023/01/21 12:42:07;;;;;;;;;;;17.10;82.20;;;;;;5059714;28;19921;-81
2023/01/21 12:44:42;;;;;;;;;;;16.50;83.20;;;;;;5048609;28;19961;-75
2023/01/21 12:47:17;;;;;;;;;;;16.50;84.40;;;;;;5059143;28;19926;-84
2023/01/21 12:49:50;;;;;;;;;;;16.70;84.20;;;;;;5027843;28;19975;-80
2023/01/21 12:52:18;;;;;;;;;;;16.80;83.40;;;;;;5056701;28;20015;-83
2023/01/21 12:55:00;;;;;;;;;;;16.70;83.10;;;;;;5028559;28;19920;-83
2023/01/21 12:57:45;;;;;;;;;;;16.40;84.10;;;;;;5025156;28;19921;-84
2023/01/21 13:00:11;;;;;;;;;;;16.10;83.80;;;;;;5053254;28;20387;-81
2023/01/21 13:02:55;;;;;;;;;;;16.20;84.70;;;;;;5029281;28;19927;-86
2023/01/21 13:05:30;;;;;;;;;;;16.10;84.20;;;;;;5053575;28;19924;-82
2023/01/21 13:08:15;;;;;;;;;;;15.90;85.60;;;;;;5054420;28;19966;-80
2023/01/21 13:10:56;;;;;;;;;;;15.50;85.70;;;;;;5057874;28;20015;-81
2023/01/21 13:13:27;;;;;;;;;;;15.10;87.50;;;;;;5038159;28;19925;-81
2023/01/21 13:15:55;;;;;;;;;;;15.00;87.40;;;;;;5058581;28;19921;-85
2023/01/21 13:18:41;;;;;;;;;;;14.70;88.20;;;;;;5038293;28;19921;-83
2023/01/21 13:21:22;;;;;;;;;;;14.80;87.50;;;;;;5043223;28;19920;-80
2023/01/21 13:23:54;;;;;;;;;;;14.50;88.70;;;;;;5033193;28;19974;-85
2023/01/21 13:26:30;;;;;;;;;;;13.90;89.90;;;;;;5034487;28;20003;-82
2023/01/21 13:29:01;;;;;;;;;;;13.70;89.00;;;;;;5043526;28;20470;-79
2023/01/21 13:31:34;;;;;;;;;;;12.60;90.70;;;;;;5058108;28;19928;-85
2023/01/21 13:34:07;;;;;;;;;;;12.00;91.90;;;;;;5060464;28;19927;-87
2023/01/21 13:36:39;;;;;;;;;;;11.90;92.60;;;;;;5024051;28;20353;-85
2023/01/21 13:39:10;;;;;;;;;;;11.30;91.90;;;;;;5063872;28;20382;-77
2023/01/21 13:41:42;;;;;;;;;;;13.30;92.70;;;;;;5057592;28;19925;-82
2023/01/21 13:44:26;;;;;;;;;;;10.90;92.40;;;;;;5031630;28;19920;-82
2023/01/21 13:46:53;;;;;;;;;;;10.50;94.00;;;;;;5051867;28;19921;-82
2023/01/21 13:49:38;;;;;;;;;;;10.00;93.90;;;;;;5029047;28;19928;-82
2023/01/21 13:52:03;;;;;;;;;;;9.60;94.70;;;;;;5054308;28;19921;-85
2023/01/21 13:54:41;;;;;;;;;;;9.10;95.80;;;;;;5030715;28;19928;-77
2023/01/21 13:57:19;;;;;;;;;;;8.80;96.30;;;;;;5030569;28;19920;-81
2023/01/21 13:59:49;;;;;;;;;;;8.40;97.60;;;;;;5040229;28;20032;-77
2023/01/21 14:02:18;;;;;;;;;;;8.60;97.80;;;;;;5031777;28;19925;-73
2023/01/21 14:04:54;;;;;;;;;;;7.70;99.10;;;;;;5057393;28;19920;-78
2023/01/21 14:07:19;;;;;;;;;;;7.30;99.90;;;;;;5063423;28;19920;-77
2023/01/21 14:10:03;;;;;;;;;;;7.00;99.90;;;;;;5060489;28;19927;-79
2023/01/21 14:12:35;;;;;;;;;;;6.90;99.90;;;;;;5032263;28;19929;-76
2023/01/21 14:15:19;;;;;;;;;;;6.70;99.90;;;;;;5054355;28;19964;-76
2023/01/21 14:17:58;;;;;;;;;;;6.60;99.90;;;;;;5053734;28;19963;-77
2023/01/21 14:20:23;;;;;;;;;;;6.50;99.90;;;;;;5030395;28;19920;-75
2023/01/21 14:23:12;;;;;;;;;;;6.30;99.90;;;;;;5027080;28;19944;-81
2023/01/21 14:25:55;;;;;;;;;;;6.10;99.90;;;;;;5041623;28;20411;-82
2023/01/21 14:28:29;;;;;;;;;;;6.10;99.90;;;;;;5056297;28;19924;-82
2023/01/21 14:31:01;;;;;;;;;;;5.90;99.90;;;;;;5040591;28;19983;-83
2023/01/21 14:33:28;;;;;;;;;;;5.80;99.90;;;;;;5025395;28;19968;-81
2023/01/21 14:36:00;;;;;;;;;;;6.30;99.90;;;;;;5063738;28;19927;-77
2023/01/21 14:38:33;;;;;;;;;;;6.40;99.90;;;;;;5043321;28;19924;-78